Time;durP1;ratioP1;P1;durP2;ratioP2;P2;SDS_P1;SDS_P2;PMS_P1;PMS_P2;Temp;Humidity;BMP_temperature;BMP_pressure;BME280_temperature;BME280_humidity;BME280_pressure;Samples;Min_cycle;Max_cycle;Signal;HPM_P1;HPM_P2
2020/12/06 00:00:18;;;;;;;;;;;5.90;99.90;;;;;;5098147;28;19904;-73
2020/12/06 00:02:44;;;;;;;;;;;5.80;99.90;;;;;;5091513;28;20116;-70
2020/12/06 00:05:10;;;;;;;;;;;5.70;99.90;;;;;;5097896;28;20412;-75
2020/12/06 00:07:36;;;;;;;;;;;5.70;99.90;;;;;;5090948;28;20006;-74
2020/12/06 00:10:03;;;;;;;;;;;5.70;99.90;;;;;;5080043;28;20428;-74
2020/12/06 00:12:28;;;;;;;;;;;5.60;99.90;;;;;;5089937;28;20030;-70
2020/12/06 00:14:54;;;;;;;;;;;5.70;99.90;;;;;;5099233;28;20020;-70
2020/12/06 00:17:21;;;;;;;;;;;5.60;99.90;;;;;;5091618;28;19927;-73
2020/12/06 00:19:47;;;;;;;;;;;5.70;99.90;;;;;;5099725;28;19919;-73
2020/12/06 00:22:12;;;;;;;;;;;5.50;99.90;;;;;;5088555;28;20283;-69
2020/12/06 00:24:38;;;;;;;;;;;5.70;99.90;;;;;;5097285;28;19903;-69
2020/12/06 00:27:04;;;;;;;;;;;5.50;99.90;;;;;;5109394;28;19908;-71
2020/12/06 00:29:29;;;;;;;;;;;5.50;99.90;;;;;;5082522;28;20374;-69
2020/12/06 00:31:55;;;;;;;;;;;5.60;99.90;;;;;;5088797;28;19910;-71
2020/12/06 00:34:20;;;;;;;;;;;5.60;99.90;;;;;;5099888;28;19984;-71
2020/12/06 00:36:49;;;;;;;;;;;5.50;99.90;;;;;;5089000;28;20055;-72
2020/12/06 00:39:15;;;;;;;;;;;5.60;99.90;;;;;;5099692;28;19914;-71
2020/12/06 00:41:40;;;;;;;;;;;5.50;99.90;;;;;;5089124;28;20120;-71
2020/12/06 00:44:06;;;;;;;;;;;5.60;99.90;;;;;;5080205;28;19920;-74
2020/12/06 00:46:33;;;;;;;;;;;5.60;99.90;;;;;;5090396;28;19959;-74
2020/12/06 00:48:59;;;;;;;;;;;5.60;99.90;;;;;;5097296;28;19916;-71
2020/12/06 00:51:24;;;;;;;;;;;5.70;99.90;;;;;;5091272;28;19957;-70
2020/12/06 00:53:50;;;;;;;;;;;5.70;99.90;;;;;;5096035;28;19908;-74
2020/12/06 00:56:16;;;;;;;;;;;5.70;99.90;;;;;;5092477;28;20232;-72
2020/12/06 00:58:42;;;;;;;;;;;5.60;99.90;;;;;;5095064;28;19918;-74
2020/12/06 01:01:07;;;;;;;;;;;5.60;99.90;;;;;;5116333;27;19907;-73
2020/12/06 01:03:33;;;;;;;;;;;5.50;99.90;;;;;;5114968;27;20359;-72
2020/12/06 01:05:58;;;;;;;;;;;5.60;99.90;;;;;;5098895;28;19942;-73
2020/12/06 01:08:24;;;;;;;;;;;5.60;99.90;;;;;;5096046;28;20011;-71
2020/12/06 01:10:49;;;;;;;;;;;5.60;99.90;;;;;;5100020;28;19998;-70
2020/12/06 01:13:15;;;;;;;;;;;5.60;99.90;;;;;;5095042;28;19994;-70
2020/12/06 01:15:40;;;;;;;;;;;5.70;99.90;;;;;;5101190;28;20018;-73
2020/12/06 01:18:06;;;;;;;;;;;5.80;99.90;;;;;;5079273;28;20410;-72
2020/12/06 01:20:31;;;;;;;;;;;5.70;99.90;;;;;;5101145;28;19904;-73
2020/12/06 01:22:57;;;;;;;;;;;5.70;99.90;;;;;;5094866;28;20044;-72
2020/12/06 01:25:23;;;;;;;;;;;5.70;99.90;;;;;;5101337;28;19908;-73
2020/12/06 01:27:48;;;;;;;;;;;5.70;99.90;;;;;;5094412;28;20073;-72
2020/12/06 01:30:14;;;;;;;;;;;5.60;99.90;;;;;;5101037;28;20489;-72
2020/12/06 01:32:39;;;;;;;;;;;5.50;99.90;;;;;;5093997;28;19915;-72
2020/12/06 01:35:05;;;;;;;;;;;5.50;99.90;;;;;;5101226;28;19904;-71
2020/12/06 01:37:31;;;;;;;;;;;5.50;99.90;;;;;;5092686;28;21970;-72
2020/12/06 01:39:56;;;;;;;;;;;5.50;99.90;;;;;;5084058;28;19904;-70
2020/12/06 01:42:22;;;;;;;;;;;5.60;99.90;;;;;;5092256;28;20059;-74
2020/12/06 01:44:47;;;;;;;;;;;5.50;99.90;;;;;;5102902;28;19984;-71
2020/12/06 01:47:13;;;;;;;;;;;5.50;99.90;;;;;;5091521;28;19929;-72
2020/12/06 01:49:39;;;;;;;;;;;5.60;99.90;;;;;;5103538;28;19969;-71
2020/12/06 01:52:05;;;;;;;;;;;5.50;99.90;;;;;;5091918;28;19907;-71
2020/12/06 01:54:32;;;;;;;;;;;5.50;99.90;;;;;;5102979;28;19908;-71
2020/12/06 01:56:57;;;;;;;;;;;5.60;99.90;;;;;;5091945;28;19904;-71
2020/12/06 01:59:23;;;;;;;;;;;5.50;99.90;;;;;;5102785;28;20349;-71
2020/12/06 02:01:53;;;;;;;;;;;5.50;99.90;;;;;;5091813;28;19904;-71
2020/12/06 02:04:18;;;;;;;;;;;5.50;99.90;;;;;;5102587;28;19915;-71
2020/12/06 02:06:44;;;;;;;;;;;5.50;99.90;;;;;;5091547;28;19904;-70
2020/12/06 02:09:11;;;;;;;;;;;5.50;99.90;;;;;;5101410;28;20248;-72
2020/12/06 02:11:36;;;;;;;;;;;5.50;99.90;;;;;;5092015;28;19957;-74
2020/12/06 02:14:02;;;;;;;;;;;5.50;99.90;;;;;;5100076;28;19907;-72
2020/12/06 02:16:28;;;;;;;;;;;5.50;99.90;;;;;;5093654;28;20360;-72
2020/12/06 02:18:53;;;;;;;;;;;5.50;99.90;;;;;;5083710;28;19912;-70
2020/12/06 02:21:19;;;;;;;;;;;5.60;99.90;;;;;;5094801;28;19911;-71
2020/12/06 02:23:44;;;;;;;;;;;5.50;99.90;;;;;;5097474;28;19915;-72
2020/12/06 02:26:10;;;;;;;;;;;5.50;99.90;;;;;;5096008;28;19949;-71
2020/12/06 02:28:36;;;;;;;;;;;5.40;99.90;;;;;;5095995;28;19923;-72
2020/12/06 02:31:01;;;;;;;;;;;5.40;99.90;;;;;;5097116;28;20344;-72
2020/12/06 02:33:27;;;;;;;;;;;5.40;99.90;;;;;;5076424;28;19908;-73
2020/12/06 02:35:52;;;;;;;;;;;5.40;99.90;;;;;;5080032;28;20478;-70
2020/12/06 02:38:18;;;;;;;;;;;5.30;99.90;;;;;;5093477;28;20014;-73
2020/12/06 02:40:43;;;;;;;;;;;5.40;99.90;;;;;;5099564;28;19911;-70
2020/12/06 02:43:09;;;;;;;;;;;5.40;99.90;;;;;;5092964;28;19908;-72
2020/12/06 02:45:34;;;;;;;;;;;5.40;99.90;;;;;;5099465;28;19970;-70
2020/12/06 02:48:00;;;;;;;;;;;5.40;99.90;;;;;;5092957;28;19977;-71
2020/12/06 02:50:25;;;;;;;;;;;5.40;99.90;;;;;;5099540;28;20332;-70
2020/12/06 02:52:51;;;;;;;;;;;5.40;99.90;;;;;;5093009;28;19954;-71
2020/12/06 02:55:17;;;;;;;;;;;5.40;99.90;;;;;;5099472;28;19904;-72
2020/12/06 02:57:42;;;;;;;;;;;5.30;99.90;;;;;;5092772;28;19934;-69
2020/12/06 03:00:08;;;;;;;;;;;5.30;99.90;;;;;;5099373;28;19915;-72
2020/12/06 03:02:33;;;;;;;;;;;5.40;99.90;;;;;;5091335;28;20001;-70
2020/12/06 03:04:59;;;;;;;;;;;5.30;99.90;;;;;;5100607;28;19937;-72
2020/12/06 03:07:24;;;;;;;;;;;5.30;99.90;;;;;;5090433;28;19911;-74
2020/12/06 03:09:50;;;;;;;;;;;5.30;99.90;;;;;;5101319;28;19919;-73
2020/12/06 03:12:15;;;;;;;;;;;5.30;99.90;;;;;;5090001;28;19911;-73
2020/12/06 03:14:41;;;;;;;;;;;5.40;99.90;;;;;;5101560;28;19934;-71
2020/12/06 03:17:06;;;;;;;;;;;5.40;99.90;;;;;;5092170;28;20367;-73
2020/12/06 03:19:32;;;;;;;;;;;5.50;99.90;;;;;;5102110;28;19949;-71
2020/12/06 03:21:57;;;;;;;;;;;5.40;99.90;;;;;;5089099;28;19993;-70
2020/12/06 03:24:24;;;;;;;;;;;5.40;99.90;;;;;;5101398;28;20050;-71
2020/12/06 03:26:49;;;;;;;;;;;5.40;99.90;;;;;;5089966;28;19915;-76
2020/12/06 03:29:15;;;;;;;;;;;5.40;99.90;;;;;;5100112;28;19908;-72
2020/12/06 03:31:40;;;;;;;;;;;5.40;99.90;;;;;;5090705;28;19912;-74
2020/12/06 03:34:06;;;;;;;;;;;5.30;99.90;;;;;;5098765;28;20351;-72
2020/12/06 03:36:32;;;;;;;;;;;5.30;99.90;;;;;;5091838;28;20404;-74
2020/12/06 03:38:57;;;;;;;;;;;5.40;99.90;;;;;;5097620;28;19910;-70
2020/12/06 03:41:23;;;;;;;;;;;5.50;99.90;;;;;;5093062;28;19908;-73
2020/12/06 03:43:48;;;;;;;;;;;5.40;99.90;;;;;;5095894;28;19916;-70
2020/12/06 03:46:14;;;;;;;;;;;5.30;99.90;;;;;;5094184;28;19910;-74
2020/12/06 03:48:39;;;;;;;;;;;5.30;99.90;;;;;;5094775;28;20009;-72
2020/12/06 03:51:05;;;;;;;;;;;5.30;99.90;;;;;;5095333;28;19911;-75
2020/12/06 03:53:30;;;;;;;;;;;5.50;99.90;;;;;;5093547;28;19927;-73
2020/12/06 03:55:56;;;;;;;;;;;5.40;99.90;;;;;;5096659;28;19904;-76
2020/12/06 03:58:21;;;;;;;;;;;5.40;99.90;;;;;;5092154;28;20117;-72
2020/12/06 04:00:47;;;;;;;;;;;5.40;99.90;;;;;;5097597;28;19904;-73
2020/12/06 04:03:12;;;;;;;;;;;5.50;99.90;;;;;;5073547;28;20237;-71
2020/12/06 04:05:38;;;;;;;;;;;5.50;99.90;;;;;;5098105;28;19904;-73
2020/12/06 04:08:03;;;;;;;;;;;5.50;99.90;;;;;;5091219;28;19915;-71
2020/12/06 04:10:29;;;;;;;;;;;5.50;99.90;;;;;;5098112;28;19911;-73
2020/12/06 04:12:54;;;;;;;;;;;5.50;99.90;;;;;;5091548;28;19907;-71
2020/12/06 04:15:20;;;;;;;;;;;5.60;99.90;;;;;;5097924;28;19904;-74
2020/12/06 04:17:46;;;;;;;;;;;5.70;99.90;;;;;;5094600;28;19908;-75
2020/12/06 04:20:11;;;;;;;;;;;5.50;99.90;;;;;;5097914;28;20257;-71
2020/12/06 04:22:37;;;;;;;;;;;5.50;99.90;;;;;;5090311;28;19923;-74
2020/12/06 04:25:03;;;;;;;;;;;5.50;99.90;;;;;;5083782;28;20286;-71
2020/12/06 04:27:29;;;;;;;;;;;5.50;99.90;;;;;;5106807;28;19915;-72
2020/12/06 04:29:54;;;;;;;;;;;5.50;99.90;;;;;;5108146;28;19968;-69
2020/12/06 04:32:20;;;;;;;;;;;5.40;99.90;;;;;;5089197;28;19923;-71
2020/12/06 04:34:45;;;;;;;;;;;5.40;99.90;;;;;;5081007;28;19903;-70
2020/12/06 04:37:11;;;;;;;;;;;5.40;99.90;;;;;;5109242;28;19907;-73
2020/12/06 04:39:37;;;;;;;;;;;5.40;99.90;;;;;;5100405;28;19916;-75
2020/12/06 04:42:03;;;;;;;;;;;5.50;99.90;;;;;;5103938;28;20638;-72
2020/12/06 04:44:28;;;;;;;;;;;5.30;99.90;;;;;;5103440;28;20260;-72
2020/12/06 04:47:01;;;;;;;;;;;5.50;99.90;;;;;;5106865;28;19916;-72
2020/12/06 04:49:44;;;;;;;;;;;5.50;99.90;;;;;;5101775;28;19977;-72
2020/12/06 04:52:15;;;;;;;;;;;5.30;99.90;;;;;;5092863;28;19907;-74
2020/12/06 04:54:41;;;;;;;;;;;5.40;99.90;;;;;;5103743;28;19915;-76
2020/12/06 04:57:08;;;;;;;;;;;5.40;99.90;;;;;;5109009;28;19904;-70
2020/12/06 04:59:37;;;;;;;;;;;5.40;99.90;;;;;;5096012;28;20362;-72
2020/12/06 05:02:04;;;;;;;;;;;5.50;99.90;;;;;;5109042;28;19907;-75
2020/12/06 05:04:32;;;;;;;;;;;5.50;99.90;;;;;;5101007;28;19953;-71
2020/12/06 05:06:57;;;;;;;;;;;5.50;99.90;;;;;;5088516;28;19973;-73
2020/12/06 05:09:24;;;;;;;;;;;5.50;99.90;;;;;;5099713;28;19908;-73
2020/12/06 05:11:50;;;;;;;;;;;5.40;99.90;;;;;;5088434;28;19904;-74
2020/12/06 05:14:15;;;;;;;;;;;5.30;99.90;;;;;;5098756;28;20077;-74
2020/12/06 05:16:41;;;;;;;;;;;5.40;99.90;;;;;;5089395;28;19987;-76
2020/12/06 05:19:07;;;;;;;;;;;5.40;99.90;;;;;;5100807;28;20006;-73
2020/12/06 05:21:33;;;;;;;;;;;5.50;99.90;;;;;;5090476;28;19908;-73
2020/12/06 05:23:59;;;;;;;;;;;5.40;99.90;;;;;;5079492;28;19918;-71
2020/12/06 05:26:24;;;;;;;;;;;5.40;99.90;;;;;;5091750;28;19904;-72
2020/12/06 05:28:50;;;;;;;;;;;5.40;99.90;;;;;;5094860;28;19979;-74
2020/12/06 05:31:15;;;;;;;;;;;5.40;99.90;;;;;;5092906;28;19976;-72
2020/12/06 05:33:41;;;;;;;;;;;5.40;99.90;;;;;;5093608;28;20031;-75
2020/12/06 05:36:06;;;;;;;;;;;5.50;99.90;;;;;;5094203;28;20358;-74
2020/12/06 05:38:32;;;;;;;;;;;5.50;99.90;;;;;;5092695;28;19911;-73
2020/12/06 05:40:57;;;;;;;;;;;5.30;99.90;;;;;;5095389;28;20422;-71
2020/12/06 05:43:27;;;;;;;;;;;5.40;99.90;;;;;;5090874;28;20031;-74
2020/12/06 05:46:09;;;;;;;;;;;5.40;99.90;;;;;;5098080;28;19951;-72
2020/12/06 05:48:35;;;;;;;;;;;5.40;99.90;;;;;;5096182;28;20022;-71
2020/12/06 05:51:01;;;;;;;;;;;5.30;99.90;;;;;;5107328;28;19915;-72
2020/12/06 05:53:27;;;;;;;;;;;5.40;99.90;;;;;;5105168;28;19915;-72
2020/12/06 05:55:55;;;;;;;;;;;5.40;99.90;;;;;;5099530;28;20422;-75
2020/12/06 05:58:21;;;;;;;;;;;5.30;99.90;;;;;;5097152;28;20006;-73
2020/12/06 06:00:48;;;;;;;;;;;5.40;99.90;;;;;;5107419;28;20384;-74
2020/12/06 06:03:14;;;;;;;;;;;5.50;99.90;;;;;;5105826;28;20357;-72
2020/12/06 06:05:45;;;;;;;;;;;5.50;99.90;;;;;;5100478;28;19911;-73
2020/12/06 06:08:12;;;;;;;;;;;5.30;99.90;;;;;;5093949;28;19926;-75
2020/12/06 06:10:45;;;;;;;;;;;5.40;99.90;;;;;;5106868;28;19968;-73
2020/12/06 06:13:10;;;;;;;;;;;5.50;99.90;;;;;;5106315;28;19908;-72
2020/12/06 06:15:36;;;;;;;;;;;5.50;99.90;;;;;;5115795;27;20344;-74
2020/12/06 06:18:02;;;;;;;;;;;5.50;99.90;;;;;;5097236;28;19912;-71
2020/12/06 06:20:29;;;;;;;;;;;6.40;99.90;;;;;;5100143;28;19904;-72
2020/12/06 06:22:55;;;;;;;;;;;5.70;99.90;;;;;;5105004;28;19907;-71
2020/12/06 06:25:21;;;;;;;;;;;5.60;99.90;;;;;;5110977;28;20025;-71
2020/12/06 06:27:46;;;;;;;;;;;5.50;99.90;;;;;;5109230;28;20031;-72
2020/12/06 06:30:12;;;;;;;;;;;5.40;99.90;;;;;;5100072;28;19907;-72
2020/12/06 06:32:38;;;;;;;;;;;5.40;99.90;;;;;;5091921;28;19912;-73
2020/12/06 06:35:05;;;;;;;;;;;5.30;99.90;;;;;;5101294;28;19904;-72
2020/12/06 06:37:31;;;;;;;;;;;5.30;99.90;;;;;;5091209;28;20011;-74
2020/12/06 06:39:58;;;;;;;;;;;5.40;99.90;;;;;;5083636;28;19915;-74
2020/12/06 06:42:25;;;;;;;;;;;5.30;99.90;;;;;;5072903;28;19923;-71
2020/12/06 06:44:55;;;;;;;;;;;5.30;99.90;;;;;;5101590;28;19916;-72
2020/12/06 06:47:21;;;;;;;;;;;5.40;99.90;;;;;;5090556;28;20481;-72
2020/12/06 06:49:51;;;;;;;;;;;5.40;99.90;;;;;;5102311;28;19968;-73
2020/12/06 06:52:17;;;;;;;;;;;5.40;99.90;;;;;;5110191;28;20539;-72
2020/12/06 06:54:45;;;;;;;;;;;5.40;99.90;;;;;;5105884;28;19903;-72
2020/12/06 06:57:11;;;;;;;;;;;5.40;99.90;;;;;;5113868;27;19965;-71
2020/12/06 06:59:36;;;;;;;;;;;5.40;99.90;;;;;;5106266;27;19998;-72
2020/12/06 07:02:03;;;;;;;;;;;5.50;99.90;;;;;;5109094;28;19915;-71
2020/12/06 07:04:28;;;;;;;;;;;5.40;99.90;;;;;;5106593;28;20288;-72
2020/12/06 07:06:54;;;;;;;;;;;5.40;99.90;;;;;;5109424;28;19956;-71
2020/12/06 07:09:27;;;;;;;;;;;5.40;99.90;;;;;;5106778;28;20037;-72
2020/12/06 07:11:57;;;;;;;;;;;5.50;99.90;;;;;;5090881;28;19943;-74
2020/12/06 07:14:23;;;;;;;;;;;5.50;99.90;;;;;;5106136;28;19911;-75
2020/12/06 07:16:50;;;;;;;;;;;5.60;99.90;;;;;;5107719;28;19934;-73
2020/12/06 07:19:15;;;;;;;;;;;5.50;99.90;;;;;;5106963;28;19972;-75
2020/12/06 07:21:41;;;;;;;;;;;5.70;99.90;;;;;;5092547;28;20344;-74
2020/12/06 07:24:06;;;;;;;;;;;5.50;99.90;;;;;;5078564;28;19938;-73
2020/12/06 07:26:32;;;;;;;;;;;5.50;99.90;;;;;;5091384;28;19908;-73
2020/12/06 07:28:58;;;;;;;;;;;5.60;99.90;;;;;;5096880;28;19923;-73
2020/12/06 07:31:24;;;;;;;;;;;5.60;99.90;;;;;;5093674;28;19903;-73
2020/12/06 07:33:49;;;;;;;;;;;5.60;99.90;;;;;;5095949;28;19999;-73
2020/12/06 07:36:16;;;;;;;;;;;5.50;99.90;;;;;;5076494;28;19910;-73
2020/12/06 07:38:41;;;;;;;;;;;5.50;99.90;;;;;;5094871;28;20446;-74
2020/12/06 07:41:07;;;;;;;;;;;5.50;99.90;;;;;;5099845;28;20002;-72
2020/12/06 07:43:32;;;;;;;;;;;5.50;99.90;;;;;;5103215;28;19920;-74
2020/12/06 07:46:17;;;;;;;;;;;5.40;99.90;;;;;;5096760;28;19908;-72
2020/12/06 07:48:43;;;;;;;;;;;5.50;99.90;;;;;;5094623;28;20014;-71
2020/12/06 07:51:08;;;;;;;;;;;5.60;99.90;;;;;;5108496;28;20002;-73
2020/12/06 07:53:44;;;;;;;;;;;5.50;99.90;;;;;;5106223;28;20243;-70
2020/12/06 07:56:10;;;;;;;;;;;5.40;99.90;;;;;;5106631;28;20329;-71
2020/12/06 07:58:38;;;;;;;;;;;5.50;99.90;;;;;;5106555;28;19907;-73
2020/12/06 08:01:04;;;;;;;;;;;5.50;99.90;;;;;;5106483;28;20363;-73
2020/12/06 08:03:29;;;;;;;;;;;5.50;99.90;;;;;;5108013;28;19907;-73
2020/12/06 08:05:57;;;;;;;;;;;5.60;99.90;;;;;;5106558;28;19910;-73
2020/12/06 08:08:23;;;;;;;;;;;5.60;99.90;;;;;;5102272;28;19970;-73
2020/12/06 08:10:54;;;;;;;;;;;5.60;99.90;;;;;;5108857;28;19907;-73
2020/12/06 08:13:20;;;;;;;;;;;5.50;99.90;;;;;;5105420;28;20276;-72
2020/12/06 08:15:46;;;;;;;;;;;5.70;99.90;;;;;;5104909;28;19915;-72
2020/12/06 08:18:12;;;;;;;;;;;5.70;99.90;;;;;;5105050;28;19908;-72
2020/12/06 08:20:38;;;;;;;;;;;5.70;99.90;;;;;;5104383;28;19904;-71
2020/12/06 08:23:03;;;;;;;;;;;5.80;99.90;;;;;;5106901;28;20056;-72
2020/12/06 08:25:30;;;;;;;;;;;5.70;99.90;;;;;;5102995;28;20010;-71
2020/12/06 08:27:57;;;;;;;;;;;5.80;99.90;;;;;;5105929;28;19955;-73
2020/12/06 08:30:24;;;;;;;;;;;5.80;99.90;;;;;;5105283;28;19911;-73
2020/12/06 08:32:56;;;;;;;;;;;5.90;99.90;;;;;;5108166;28;19995;-76
2020/12/06 08:35:42;;;;;;;;;;;5.80;99.90;;;;;;5097014;28;19904;-77
2020/12/06 08:38:20;;;;;;;;;;;5.80;99.90;;;;;;5072691;28;19954;-77
2020/12/06 08:41:15;;;;;;;;;;;5.80;99.90;;;;;;5100347;28;19903;-77
2020/12/06 08:43:40;;;;;;;;;;;5.70;99.90;;;;;;5088569;28;19916;-77
2020/12/06 08:46:10;;;;;;;;;;;5.70;99.90;;;;;;5095834;28;20131;-77
2020/12/06 08:48:35;;;;;;;;;;;5.90;99.90;;;;;;5092921;28;19916;-78
2020/12/06 08:51:01;;;;;;;;;;;5.70;99.90;;;;;;5096378;28;19911;-77
2020/12/06 08:53:26;;;;;;;;;;;5.80;99.90;;;;;;5091755;28;19908;-77
2020/12/06 08:55:52;;;;;;;;;;;5.90;99.90;;;;;;5097276;28;19908;-77
2020/12/06 08:58:30;;;;;;;;;;;5.90;99.90;;;;;;5091225;28;20018;-77
2020/12/06 09:01:02;;;;;;;;;;;6.00;99.90;;;;;;5101493;28;20286;-77
2020/12/06 09:03:28;;;;;;;;;;;6.00;99.90;;;;;;5102594;28;19908;-77
2020/12/06 09:05:53;;;;;;;;;;;6.10;99.90;;;;;;5097152;28;19904;-76
2020/12/06 09:08:19;;;;;;;;;;;6.10;99.90;;;;;;5091333;28;19953;-77
2020/12/06 09:10:44;;;;;;;;;;;6.40;99.90;;;;;;5097654;28;20392;-76
2020/12/06 09:13:10;;;;;;;;;;;6.50;99.90;;;;;;5092605;28;19949;-76
2020/12/06 09:15:35;;;;;;;;;;;6.50;99.90;;;;;;5100051;28;19912;-77
2020/12/06 09:18:01;;;;;;;;;;;6.60;99.90;;;;;;5105782;28;20048;-76
2020/12/06 09:20:26;;;;;;;;;;;6.70;99.90;;;;;;5099031;28;20450;-77
2020/12/06 09:22:52;;;;;;;;;;;6.70;99.90;;;;;;5094843;28;19912;-76
2020/12/06 09:25:17;;;;;;;;;;;6.50;99.90;;;;;;5101411;28;19915;-76
2020/12/06 09:27:43;;;;;;;;;;;6.50;99.90;;;;;;5093959;28;19939;-76
2020/12/06 09:30:08;;;;;;;;;;;6.50;99.90;;;;;;5102355;28;19904;-76
2020/12/06 09:32:34;;;;;;;;;;;6.60;99.90;;;;;;5074252;28;19947;-76
2020/12/06 09:34:59;;;;;;;;;;;6.60;99.90;;;;;;5103222;28;19904;-76
2020/12/06 09:37:25;;;;;;;;;;;6.70;99.90;;;;;;5091374;28;20028;-76
2020/12/06 09:39:50;;;;;;;;;;;6.60;99.90;;;;;;5107777;28;19950;-71
2020/12/06 09:42:16;;;;;;;;;;;6.70;99.90;;;;;;5098772;28;20395;-71
2020/12/06 09:44:41;;;;;;;;;;;6.60;99.90;;;;;;5108660;28;20115;-70
2020/12/06 09:47:07;;;;;;;;;;;6.60;99.90;;;;;;5111703;28;19919;-72
2020/12/06 09:49:33;;;;;;;;;;;6.60;99.90;;;;;;5107154;28;20379;-71
2020/12/06 09:51:58;;;;;;;;;;;6.30;99.90;;;;;;5102288;28;19912;-70
2020/12/06 09:54:24;;;;;;;;;;;6.40;99.90;;;;;;5108728;28;20299;-70
2020/12/06 09:56:49;;;;;;;;;;;6.40;99.90;;;;;;5108974;28;19907;-71
2020/12/06 09:59:15;;;;;;;;;;;6.40;99.90;;;;;;5109201;28;19907;-71
2020/12/06 10:01:40;;;;;;;;;;;6.50;99.90;;;;;;5111653;28;19931;-71
2020/12/06 10:04:06;;;;;;;;;;;6.40;99.90;;;;;;5106919;28;19967;-70
2020/12/06 10:06:31;;;;;;;;;;;6.60;99.90;;;;;;5109740;28;20384;-70
2020/12/06 10:08:57;;;;;;;;;;;6.60;99.90;;;;;;5106778;28;20068;-71
2020/12/06 10:11:23;;;;;;;;;;;6.70;99.90;;;;;;5110498;27;19952;-70
2020/12/06 10:13:48;;;;;;;;;;;6.70;99.90;;;;;;5106873;28;19916;-70
2020/12/06 10:16:15;;;;;;;;;;;6.60;99.90;;;;;;5109567;28;19954;-70
2020/12/06 10:18:40;;;;;;;;;;;6.50;99.90;;;;;;5104751;28;19915;-71
2020/12/06 10:21:07;;;;;;;;;;;6.70;99.90;;;;;;5099185;28;19904;-71
2020/12/06 10:23:33;;;;;;;;;;;6.70;99.90;;;;;;5104873;28;19911;-70
2020/12/06 10:25:58;;;;;;;;;;;6.80;99.90;;;;;;5099113;28;20257;-70
2020/12/06 10:28:24;;;;;;;;;;;6.70;99.90;;;;;;5096912;28;20011;-70
2020/12/06 10:30:49;;;;;;;;;;;6.90;99.90;;;;;;5101761;28;19919;-71
2020/12/06 10:33:15;;;;;;;;;;;7.10;99.90;;;;;;5110787;27;20279;-71
2020/12/06 10:35:44;;;;;;;;;;;7.30;99.90;;;;;;5110598;28;20287;-70
2020/12/06 10:38:10;;;;;;;;;;;7.80;99.90;;;;;;5093331;28;19912;-70
2020/12/06 10:40:36;;;;;;;;;;;8.10;99.90;;;;;;5108582;28;19915;-71
2020/12/06 10:43:01;;;;;;;;;;;8.00;99.90;;;;;;5108160;28;19904;-70
2020/12/06 10:45:27;;;;;;;;;;;7.80;99.90;;;;;;5107173;28;20006;-70
2020/12/06 10:47:52;;;;;;;;;;;7.70;99.90;;;;;;5110130;27;20002;-71
2020/12/06 10:50:18;;;;;;;;;;;7.40;99.90;;;;;;5104625;28;19908;-71
2020/12/06 10:52:43;;;;;;;;;;;7.40;99.90;;;;;;5108704;28;19908;-70
2020/12/06 10:55:09;;;;;;;;;;;7.30;99.90;;;;;;5110185;28;19990;-71
2020/12/06 10:57:35;;;;;;;;;;;7.30;99.90;;;;;;5109491;28;19915;-70
2020/12/06 11:00:01;;;;;;;;;;;7.30;99.90;;;;;;5101684;28;20037;-70
2020/12/06 11:02:27;;;;;;;;;;;7.90;99.90;;;;;;5090580;28;19973;-71
2020/12/06 11:04:52;;;;;;;;;;;8.00;99.90;;;;;;5101786;28;19908;-70
2020/12/06 11:07:18;;;;;;;;;;;8.00;99.90;;;;;;5090465;28;20284;-70
2020/12/06 11:09:43;;;;;;;;;;;7.80;99.90;;;;;;5101485;28;19908;-71
2020/12/06 11:12:09;;;;;;;;;;;7.90;99.90;;;;;;5090562;28;19904;-70
2020/12/06 11:14:34;;;;;;;;;;;8.00;99.90;;;;;;5101201;28;19915;-71
2020/12/06 11:17:00;;;;;;;;;;;8.50;99.90;;;;;;5091557;27;19908;-71
2020/12/06 11:19:25;;;;;;;;;;;8.90;99.90;;;;;;5103928;28;20513;-70
2020/12/06 11:21:52;;;;;;;;;;;9.10;99.90;;;;;;5090310;28;19904;-70
2020/12/06 11:24:18;;;;;;;;;;;9.30;99.90;;;;;;5083421;28;20405;-70
2020/12/06 11:26:43;;;;;;;;;;;9.30;99.90;;;;;;5109102;28;19914;-70
2020/12/06 11:29:09;;;;;;;;;;;9.40;99.90;;;;;;5107253;28;19916;-70
2020/12/06 11:31:35;;;;;;;;;;;9.40;99.90;;;;;;5107187;28;19957;-69
2020/12/06 11:34:00;;;;;;;;;;;9.70;99.90;;;;;;5107210;28;19984;-70
2020/12/06 11:36:26;;;;;;;;;;;9.20;99.90;;;;;;5108125;28;19907;-69
2020/12/06 11:38:51;;;;;;;;;;;9.20;99.90;;;;;;5090392;28;19951;-70
2020/12/06 11:41:17;;;;;;;;;;;9.50;99.90;;;;;;5109204;28;19911;-70
2020/12/06 11:43:43;;;;;;;;;;;9.50;99.90;;;;;;5106956;28;19980;-70
2020/12/06 11:46:09;;;;;;;;;;;9.50;99.90;;;;;;5111497;27;19926;-70
2020/12/06 11:48:34;;;;;;;;;;;9.60;99.90;;;;;;5106974;28;19923;-70
2020/12/06 11:51:00;;;;;;;;;;;9.40;99.90;;;;;;5109026;28;20325;-70
2020/12/06 11:53:25;;;;;;;;;;;8.90;99.90;;;;;;5107049;28;19907;-70
2020/12/06 11:55:51;;;;;;;;;;;9.40;99.90;;;;;;5107343;28;19914;-70
2020/12/06 11:58:16;;;;;;;;;;;9.30;99.90;;;;;;5103846;28;20093;-71
2020/12/06 12:00:42;;;;;;;;;;;9.00;99.90;;;;;;5108249;28;19914;-70
2020/12/06 12:03:07;;;;;;;;;;;8.70;99.90;;;;;;5106319;28;20398;-70
2020/12/06 12:05:33;;;;;;;;;;;8.70;99.90;;;;;;5108782;28;19910;-71
2020/12/06 12:07:58;;;;;;;;;;;8.50;99.90;;;;;;5106635;28;19924;-71
2020/12/06 12:10:24;;;;;;;;;;;8.60;99.90;;;;;;5105751;28;19903;-71
2020/12/06 12:12:50;;;;;;;;;;;8.50;99.90;;;;;;5106734;28;20529;-69
2020/12/06 12:15:15;;;;;;;;;;;8.40;99.90;;;;;;5107454;28;19908;-70
2020/12/06 12:17:41;;;;;;;;;;;8.40;99.90;;;;;;5106125;28;19907;-70
2020/12/06 12:20:07;;;;;;;;;;;8.50;99.90;;;;;;5104059;28;20302;-70
2020/12/06 12:22:32;;;;;;;;;;;8.40;99.90;;;;;;5107712;28;19907;-72
2020/12/06 12:24:58;;;;;;;;;;;8.60;99.90;;;;;;5108515;28;19910;-70
2020/12/06 12:27:23;;;;;;;;;;;8.40;99.90;;;;;;5108330;28;19907;-70
2020/12/06 12:29:49;;;;;;;;;;;8.60;99.90;;;;;;5095532;28;20400;-70
2020/12/06 12:32:14;;;;;;;;;;;8.80;99.90;;;;;;5092914;28;19915;-71
2020/12/06 12:34:41;;;;;;;;;;;8.60;99.90;;;;;;5101260;28;19908;-70
2020/12/06 12:37:06;;;;;;;;;;;8.60;99.90;;;;;;5088982;28;19999;-71
2020/12/06 12:39:32;;;;;;;;;;;8.60;99.90;;;;;;5100067;28;20351;-70
2020/12/06 12:41:59;;;;;;;;;;;8.60;99.90;;;;;;5089054;28;19904;-71
2020/12/06 12:44:25;;;;;;;;;;;8.70;99.90;;;;;;5099035;28;19955;-70
2020/12/06 12:46:54;;;;;;;;;;;8.60;99.90;;;;;;5103079;28;19919;-70
2020/12/06 12:49:19;;;;;;;;;;;8.60;99.90;;;;;;5107218;28;20010;-70
2020/12/06 12:51:45;;;;;;;;;;;8.50;99.90;;;;;;5102031;28;20435;-70
2020/12/06 12:54:10;;;;;;;;;;;8.60;99.90;;;;;;5105627;28;19950;-70
2020/12/06 12:56:36;;;;;;;;;;;8.50;99.90;;;;;;5095779;28;19911;-69
2020/12/06 12:59:01;;;;;;;;;;;8.40;99.90;;;;;;5099888;28;19936;-71
2020/12/06 13:01:27;;;;;;;;;;;8.60;99.90;;;;;;5097179;28;19903;-70
2020/12/06 13:03:53;;;;;;;;;;;8.80;99.90;;;;;;5098487;28;19952;-70
2020/12/06 13:06:19;;;;;;;;;;;9.00;99.90;;;;;;5110808;28;20385;-69
2020/12/06 13:08:45;;;;;;;;;;;9.30;99.90;;;;;;5106168;28;19920;-70
2020/12/06 13:11:11;;;;;;;;;;;9.20;99.90;;;;;;5099120;28;19911;-70
2020/12/06 13:13:36;;;;;;;;;;;9.40;99.90;;;;;;5096161;28;19912;-71
2020/12/06 13:16:02;;;;;;;;;;;9.50;99.90;;;;;;5100301;28;19911;-71
2020/12/06 13:18:28;;;;;;;;;;;9.10;99.90;;;;;;5099648;28;19915;-70
2020/12/06 13:20:54;;;;;;;;;;;9.20;99.90;;;;;;5101467;28;20264;-70
2020/12/06 13:23:20;;;;;;;;;;;9.30;99.90;;;;;;5094685;28;20372;-71
2020/12/06 13:25:45;;;;;;;;;;;9.00;99.90;;;;;;5101271;28;19911;-71
2020/12/06 13:28:12;;;;;;;;;;;9.30;99.90;;;;;;5094854;28;20532;-71
2020/12/06 13:30:38;;;;;;;;;;;9.60;99.90;;;;;;5101201;28;19904;-70
2020/12/06 13:33:04;;;;;;;;;;;9.40;99.90;;;;;;5094562;28;19960;-70
2020/12/06 13:35:29;;;;;;;;;;;9.00;99.90;;;;;;5101106;28;19931;-71
2020/12/06 13:37:55;;;;;;;;;;;8.80;99.90;;;;;;5094456;28;19928;-70
2020/12/06 13:40:20;;;;;;;;;;;8.80;99.90;;;;;;5101203;28;19984;-70
2020/12/06 13:42:46;;;;;;;;;;;8.70;99.90;;;;;;5103012;28;20319;-70
2020/12/06 13:45:11;;;;;;;;;;;8.80;99.90;;;;;;5104942;28;19916;-70
2020/12/06 13:47:37;;;;;;;;;;;9.00;99.90;;;;;;5106759;27;20020;-70
2020/12/06 13:50:03;;;;;;;;;;;8.90;99.90;;;;;;5102752;28;19912;-70
2020/12/06 13:52:28;;;;;;;;;;;9.00;99.90;;;;;;5091664;28;19944;-70
2020/12/06 13:54:54;;;;;;;;;;;8.90;99.90;;;;;;5103320;28;20023;-70
2020/12/06 13:57:19;;;;;;;;;;;8.90;99.90;;;;;;5091719;28;19904;-70
2020/12/06 13:59:45;;;;;;;;;;;9.10;99.90;;;;;;5102813;28;19907;-70
2020/12/06 14:02:10;;;;;;;;;;;9.30;99.90;;;;;;5091820;28;19964;-69
2020/12/06 14:04:36;;;;;;;;;;;9.90;99.90;;;;;;5102681;28;19964;-70
2020/12/06 14:07:01;;;;;;;;;;;10.40;99.90;;;;;;5103755;28;20359;-70
2020/12/06 14:09:27;;;;;;;;;;;10.00;99.90;;;;;;5106291;28;19915;-70
2020/12/06 14:11:55;;;;;;;;;;;9.70;99.90;;;;;;5111527;28;19907;-70
2020/12/06 14:14:21;;;;;;;;;;;9.30;99.90;;;;;;5105023;28;19919;-70
2020/12/06 14:16:47;;;;;;;;;;;9.00;99.90;;;;;;5093134;28;19903;-70
2020/12/06 14:19:13;;;;;;;;;;;9.10;99.90;;;;;;5109682;27;19918;-70
2020/12/06 14:21:40;;;;;;;;;;;8.80;99.90;;;;;;5094062;28;19904;-70
2020/12/06 14:24:06;;;;;;;;;;;8.80;99.90;;;;;;5098506;28;19990;-70